Thunder radar more information blitzortung!


Radar de pluja more information rain snow radar


Visita la nostra xarxa de llocs de meteo:

Template documentation
and downloads

And another site



No particular awareness of the weather is required.    There are no Weather-warnings

Pagina Historial Weather Underground text

Diari Resum Novembre 5, 2017 Unitats:  Imperial    Mètric   Tant
« Previous Dia
SegĂźent Dia »
Diari Setmana Mensual Anual Personalitzada
  Maxima: Minima: Media:
Temperatura: TemperatureC °F 7.3 °F 13.6 °F
Punt de rosada: DewpointC °F 0.5 °F 7.4 °F
Humitat: Humidity % 48 % 68 %
Wind Speed: WindSpeedKMH mph 0.0 mph 6.7 mph
RĂ fegues de vent: WindSpeedGustKMH mph - -
Vent:- - WSW
Pression baro: PressurehPa in 1009.0 in -
Precipitacions: 0.0 in    
Historical Graphs
 
 
Dades de taula per Novembre 5, 2017
Temps Temperatura Punt de rosada Pression baro Vent Wind Speed RĂ fegues de vent Humitat Rainfall Rate (Hourly)
TemperatureC °F DewpointC °F PressurehPa in Calm     Humidity % HourlyPrecipMM in
00:00 13.3 °F 12.0 °F 1010.0 in Calm     92 % 0.0 in
00:05 13.2 °F 11.9 °F 1010.0 in SW 2.6 mph 2.6 mph 92 % 0.0 in
00:10 13.2 °F 11.8 °F 1010.0 in SW 3.7 mph 3.7 mph 91 % 0.0 in
00:15 13.1 °F 11.7 °F 1010.0 in SW 3.7 mph 3.7 mph 91 % 0.0 in
00:20 13.1 °F 11.7 °F 1010.0 in WSW 3.9 mph 3.9 mph 91 % 0.0 in
00:25 13.1 °F 11.7 °F 1010.7 in SW 3.9 mph 3.9 mph 91 % 0.0 in
00:30 13.0 °F 11.6 °F 1010.7 in WSW 3.7 mph 3.9 mph 91 % 0.0 in
00:35 13.0 °F 11.6 °F 1010.7 in WSW 2.3 mph 2.3 mph 91 % 0.0 in
00:40 13.0 °F 11.6 °F 1009.0 in WSW 2.6 mph 2.6 mph 91 % 0.0 in
00:46 13.0 °F 11.6 °F 1009.0 in WSW 3.7 mph 3.7 mph 91 % 0.0 in
00:51 13.0 °F 11.6 °F 1009.0 in West 3.7 mph 3.7 mph 91 % 0.0 in
00:56 13.0 °F 11.6 °F 1010.0 in WSW 3.7 mph   91 % 0.0 in
01:01 12.9 °F 11.4 °F 1010.0 in Calm     91 % 0.0 in
01:06 12.9 °F 11.6 °F 1010.0 in Calm     92 % 0.0 in
01:11 12.8 °F 11.6 °F 1010.0 in Calm     92 % 0.0 in
01:16 12.8 °F 11.6 °F 1010.0 in Calm     92 % 0.0 in
01:21 12.8 °F 11.6 °F 1010.0 in WSW 3.7 mph 3.7 mph 92 % 0.0 in
01:26 12.8 °F 11.6 °F 1010.0 in WSW 1.9 mph   92 % 0.0 in
01:31 12.7 °F 11.3 °F 1010.0 in WSW 3.7 mph 3.7 mph 91 % 0.0 in
01:36 12.7 °F 11.3 °F 1010.0 in WSW 3.7 mph 3.7 mph 91 % 0.0 in
01:41 12.7 °F 11.3 °F 1010.0 in WSW 3.7 mph 3.7 mph 91 % 0.0 in
01:51 12.8 °F 11.4 °F 1010.0 in West 3.7 mph 3.7 mph 91 % 0.0 in
01:56 12.8 °F 11.4 °F 1010.7 in WSW 3.7 mph 3.7 mph 91 % 0.0 in
02:01 12.8 °F 11.4 °F 1010.7 in West 3.7 mph 3.7 mph 91 % 0.0 in
02:06 12.8 °F 11.4 °F 1010.7 in Calm     91 % 0.0 in
02:11 12.7 °F 11.4 °F 1010.7 in WSW 3.7 mph   92 % 0.0 in
02:16 12.9 °F 11.4 °F 1010.7 in WSW 7.4 mph 7.4 mph 91 % 0.0 in
02:21 13.0 °F 11.4 °F 1010.7 in West 5.6 mph 5.6 mph 90 % 0.0 in
02:26 13.0 °F 11.4 °F 1010.7 in West 5.6 mph 5.6 mph 90 % 0.0 in
02:31 13.1 °F 11.5 °F 1010.7 in WSW 5.6 mph 5.6 mph 90 % 0.0 in
02:36 13.0 °F 11.4 °F 1010.0 in WSW 7.4 mph 7.4 mph 90 % 0.0 in
02:41 12.9 °F 11.3 °F 1010.0 in West 3.7 mph 3.7 mph 90 % 0.0 in
02:46 13.0 °F 11.6 °F 1010.0 in WSW 3.7 mph 3.7 mph 91 % 0.0 in
02:51 12.9 °F 11.4 °F 1010.7 in WSW 3.7 mph 3.7 mph 91 % 0.0 in
02:56 12.9 °F 11.4 °F 1010.7 in SW 3.7 mph 3.7 mph 91 % 0.0 in
03:01 12.8 °F 11.4 °F 1010.7 in SSW 3.7 mph 3.7 mph 91 % 0.0 in
03:06 12.8 °F 11.4 °F 1010.7 in West 3.7 mph 3.7 mph 91 % 0.0 in
03:11 12.8 °F 11.4 °F 1010.7 in West 3.7 mph 3.7 mph 91 % 0.0 in
03:16 12.9 °F 11.3 °F 1010.7 in West 7.4 mph 7.4 mph 90 % 0.0 in
03:21 12.9 °F 11.3 °F 1010.7 in SW 3.9 mph 3.9 mph 90 % 0.0 in
03:26 12.9 °F 11.3 °F 1010.7 in SW 5.6 mph 5.6 mph 90 % 0.0 in
03:31 13.0 °F 11.4 °F 1010.7 in WSW 3.7 mph 3.7 mph 90 % 0.0 in
03:36 12.9 °F 11.3 °F 1010.7 in West 3.7 mph 3.7 mph 90 % 0.0 in
03:41 12.9 °F 11.3 °F 1010.7 in WSW 3.9 mph 3.9 mph 90 % 0.0 in
03:46 12.9 °F 11.3 °F 1010.7 in Calm     90 % 0.0 in
03:51 12.9 °F 11.3 °F 1010.7 in WSW 1.9 mph   90 % 0.0 in
03:56 12.9 °F 11.3 °F 1010.7 in SW 2.6 mph   90 % 0.0 in
04:01 12.9 °F 11.1 °F 1010.7 in SSW 1.9 mph   89 % 0.0 in
04:06 12.9 °F 11.1 °F 1010.7 in SW 1.9 mph   89 % 0.0 in
04:12 12.9 °F 11.1 °F 1010.7 in WNW 1.9 mph   89 % 0.0 in
04:19 12.9 °F 11.1 °F 1010.7 in Calm     89 % 0.0 in
04:20 12.9 °F 11.1 °F 1010.7 in Calm     89 % 0.0 in
04:21 12.9 °F 11.1 °F 1011.7 in Calm     89 % 0.0 in
04:24 12.9 °F 11.1 °F 1011.7 in Calm     89 % 0.0 in
04:26 12.9 °F 11.1 °F 1011.7 in Calm     89 % 0.0 in
04:30 12.9 °F 10.9 °F 1011.7 in WSW 1.4 mph   88 % 0.0 in
04:31 12.9 °F 10.9 °F 1011.7 in WSW 1.9 mph   88 % 0.0 in
04:36 12.9 °F 10.9 °F 1011.7 in WNW 1.9 mph 1.9 mph 88 % 0.0 in
04:41 12.9 °F 10.9 °F 1011.7 in SW 1.9 mph   88 % 0.0 in
04:46 12.9 °F 10.9 °F 1011.7 in WNW 3.7 mph 3.7 mph 88 % 0.0 in
04:51 12.8 °F 10.8 °F 1011.7 in WNW 1.9 mph   88 % 0.0 in
04:56 12.8 °F 10.7 °F 1011.7 in Calm     87 % 0.0 in
05:01 12.8 °F 10.7 °F 1011.7 in WNW 1.9 mph   87 % 0.0 in
05:06 12.7 °F 10.6 °F 1011.7 in Calm     87 % 0.0 in
05:11 12.7 °F 10.6 °F 1011.7 in Calm     87 % 0.0 in
05:16 12.7 °F 10.6 °F 1011.7 in WNW 2.3 mph 2.3 mph 87 % 0.0 in
05:21 12.7 °F 10.4 °F 1011.7 in NW 2.6 mph   86 % 0.0 in
05:26 12.7 °F 10.4 °F 1011.7 in Calm     86 % 0.0 in
05:31 12.6 °F 10.5 °F 1011.7 in Calm     87 % 0.0 in
05:36 12.6 °F 10.5 °F 1011.7 in Calm     87 % 0.0 in
05:41 12.7 °F 10.6 °F 1011.7 in Calm     87 % 0.0 in
05:46 12.7 °F 10.4 °F 1011.7 in ENE 3.7 mph 3.7 mph 86 % 0.0 in
05:51 12.6 °F 10.3 °F 1011.7 in Calm     86 % 0.0 in
05:56 12.5 °F 10.4 °F 1011.7 in NE 7.4 mph 7.4 mph 87 % 0.0 in
06:01 12.6 °F 10.5 °F 1011.7 in NNE 3.7 mph   87 % 0.0 in
06:06 12.6 °F 10.5 °F 1012.8 in North 7.4 mph 7.4 mph 87 % 0.0 in
06:11 12.6 °F 10.5 °F 1012.8 in North 1.9 mph   87 % 0.0 in
06:16 12.5 °F 10.4 °F 1012.8 in Calm     87 % 0.0 in
06:21 12.4 °F 10.3 °F 1012.8 in Calm     87 % 0.0 in
06:26 12.3 °F 10.2 °F 1012.8 in NW 1.9 mph   87 % 0.0 in
06:31 12.3 °F 10.2 °F 1012.8 in NW 3.7 mph 3.7 mph 87 % 0.0 in
06:36 12.3 °F 10.2 °F 1013.8 in Calm     87 % 0.0 in
06:41 12.3 °F 10.2 °F 1013.8 in West 3.7 mph 3.7 mph 87 % 0.0 in
06:47 12.3 °F 10.2 °F 1013.8 in WSW 5.0 mph 5.0 mph 87 % 0.0 in
06:52 12.2 °F 10.1 °F 1013.8 in West 7.4 mph 7.4 mph 87 % 0.0 in
06:57 12.2 °F 10.1 °F 1013.8 in Calm     87 % 0.0 in
07:02 12.1 °F 10.0 °F 1013.8 in Calm     87 % 0.0 in
07:07 12.1 °F 10.0 °F 1013.8 in NNE 1.9 mph   87 % 0.0 in
07:12 12.2 °F 10.1 °F 1013.8 in West 6.9 mph 6.9 mph 87 % 0.0 in
07:17 12.3 °F 10.0 °F 1013.8 in WSW 3.7 mph 3.7 mph 86 % 0.0 in
07:22 12.3 °F 9.8 °F 1013.8 in SW 7.4 mph   85 % 0.0 in
07:27 12.3 °F 9.8 °F 1013.8 in NNW 5.8 mph 5.8 mph 85 % 0.0 in
07:32 12.3 °F 9.8 °F 1013.8 in NE 1.9 mph   85 % 0.0 in
07:37 12.4 °F 9.9 °F 1012.8 in SW 3.7 mph 3.7 mph 85 % 0.0 in
07:42 12.4 °F 9.9 °F 1012.8 in ENE 5.6 mph 5.6 mph 85 % 0.0 in
07:47 12.3 °F 9.8 °F 1012.8 in WNW 4.7 mph 4.7 mph 85 % 0.0 in
07:52 12.3 °F 9.8 °F 1013.8 in South 2.3 mph   85 % 0.0 in
07:57 12.2 °F 9.8 °F 1013.8 in WNW 3.7 mph 3.7 mph 85 % 0.0 in
08:02 12.2 °F 9.8 °F 1013.8 in NW 1.9 mph   85 % 0.0 in
08:07 12.1 °F 9.7 °F 1013.8 in NNW 3.7 mph 3.7 mph 85 % 0.0 in
08:12 12.2 °F 9.8 °F 1013.8 in West 5.6 mph 5.6 mph 85 % 0.0 in
08:17 12.2 °F 9.6 °F 1013.8 in SSW 5.6 mph 5.6 mph 84 % 0.0 in
08:22 12.2 °F 9.6 °F 1014.8 in West 5.6 mph 5.6 mph 84 % 0.0 in
08:27 12.2 °F 9.6 °F 1014.8 in WNW 5.6 mph 5.6 mph 84 % 0.0 in
08:32 12.2 °F 9.6 °F 1014.8 in West 4.7 mph 4.7 mph 84 % 0.0 in
08:37 12.3 °F 9.7 °F 1014.8 in WSW 5.6 mph 5.6 mph 84 % 0.0 in
08:42 12.3 °F 9.5 °F 1014.8 in Calm     83 % 0.0 in
08:47 12.3 °F 9.5 °F 1014.8 in NNE 3.2 mph 3.2 mph 83 % 0.0 in
08:52 12.5 °F 9.7 °F 1014.8 in ENE 2.6 mph 2.6 mph 83 % 0.0 in
08:57 12.8 °F 10.2 °F 1014.8 in North 3.7 mph   84 % 0.0 in
09:02 12.9 °F 10.3 °F 1014.8 in WSW 1.9 mph 1.9 mph 84 % 0.0 in
09:07 13.5 °F 10.8 °F 1014.8 in NW 3.7 mph 3.7 mph 84 % 0.0 in
09:12 14.0 °F 11.3 °F 1014.8 in North 2.6 mph 2.6 mph 84 % 0.0 in
09:17 14.3 °F 11.4 °F 1014.8 in SSW 1.9 mph   83 % 0.0 in
09:22 14.2 °F 11.3 °F 1014.8 in West 4.7 mph 4.7 mph 83 % 0.0 in
09:27 14.5 °F 11.4 °F 1014.8 in WSW 5.0 mph   82 % 0.0 in
09:32 14.3 °F 11.3 °F 1014.8 in ENE 11.1 mph 11.1 mph 82 % 0.0 in
09:37 14.6 °F 11.4 °F 1015.8 in WSW 5.6 mph 5.6 mph 81 % 0.0 in
09:42 14.6 °F 11.2 °F 1015.8 in SW 7.4 mph 7.4 mph 80 % 0.0 in
09:47 14.6 °F 11.2 °F 1015.8 in West 5.6 mph 5.6 mph 80 % 0.0 in
09:52 14.5 °F 10.9 °F 1015.8 in WSW 9.3 mph 9.3 mph 79 % 0.0 in
09:57 14.6 °F 10.8 °F 1015.8 in West 9.3 mph 9.3 mph 78 % 0.0 in
10:02 15.0 °F 11.2 °F 1015.8 in WSW 6.4 mph 6.4 mph 78 % 0.0 in
10:07 14.8 °F 10.8 °F 1015.8 in West 13.0 mph 13.0 mph 77 % 0.0 in
10:12 15.0 °F 10.8 °F 1015.8 in West 7.4 mph 7.4 mph 76 % 0.0 in
10:17 15.2 °F 11.0 °F 1015.8 in WSW 7.4 mph 7.4 mph 76 % 0.0 in
10:22 15.6 °F 11.4 °F 1014.8 in West 6.1 mph 6.1 mph 76 % 0.0 in
10:27 15.6 °F 11.4 °F 1014.8 in WSW 13.0 mph 13.0 mph 76 % 0.0 in
10:32 16.1 °F 11.7 °F 1014.8 in SSE 3.9 mph 3.9 mph 75 % 0.0 in
10:37 16.1 °F 11.4 °F 1014.8 in NW 7.4 mph 7.4 mph 74 % 0.0 in
10:42 16.0 °F 11.4 °F 1014.8 in West 13.0 mph 13.0 mph 74 % 0.0 in
10:47 16.1 °F 11.1 °F 1014.8 in SW 11.1 mph 11.1 mph 72 % 0.0 in
10:52 16.0 °F 10.9 °F 1014.8 in WSW 9.3 mph 9.3 mph 72 % 0.0 in
10:57 16.0 °F 10.6 °F 1014.8 in West 9.3 mph 9.3 mph 70 % 0.0 in
11:02 16.1 °F 10.8 °F 1014.8 in WSW 9.3 mph 9.3 mph 71 % 0.0 in
11:07 16.1 °F 10.6 °F 1014.8 in WSW 9.3 mph 9.3 mph 70 % 0.0 in
11:12 16.2 °F 10.5 °F 1014.8 in SW 5.6 mph 5.6 mph 69 % 0.0 in
11:17 16.6 °F 10.9 °F 1014.8 in WSW 7.4 mph 7.4 mph 69 % 0.0 in
11:22 16.7 °F 11.2 °F 1014.8 in SW 13.0 mph 13.0 mph 70 % 0.0 in
11:27 16.7 °F 10.8 °F 1014.8 in WSW 9.3 mph 9.3 mph 68 % 0.0 in
11:32 17.0 °F 10.8 °F 1014.8 in SW 6.9 mph 6.9 mph 67 % 0.0 in
11:37 17.1 °F 10.7 °F 1014.8 in NNE 3.7 mph 3.7 mph 66 % 0.0 in
11:42 17.4 °F 11.0 °F 1014.8 in NNE 7.4 mph 7.4 mph 66 % 0.0 in
11:47 17.3 °F 10.7 °F 1014.8 in West 5.6 mph 5.6 mph 65 % 0.0 in
11:52 17.5 °F 10.6 °F 1014.8 in NNE 5.6 mph 5.8 mph 64 % 0.0 in
11:57 17.5 °F 10.4 °F 1014.8 in SSW 9.3 mph 9.3 mph 63 % 0.0 in
12:02 17.6 °F 10.4 °F 1014.8 in NNW 5.6 mph 5.6 mph 63 % 0.0 in
12:07 17.9 °F 10.8 °F 1014.8 in SE 8.7 mph 8.7 mph 63 % 0.0 in
12:12 17.8 °F 10.4 °F 1014.8 in WSW 13.0 mph 13.0 mph 62 % 0.0 in
12:17 17.5 °F 9.7 °F 1014.8 in West 18.5 mph 18.5 mph 60 % 0.0 in
12:22 17.6 °F 9.7 °F 1014.8 in SW 12.6 mph 12.6 mph 60 % 0.0 in
12:27 17.9 °F 9.8 °F 1014.8 in NNE 4.2 mph 5.0 mph 59 % 0.0 in
12:32 17.8 °F 9.7 °F 1014.8 in West 13.0 mph 13.0 mph 59 % 0.0 in
12:37 17.8 °F 9.7 °F 1014.8 in WSW 9.3 mph 10.8 mph 59 % 0.0 in
12:42 17.5 °F 8.9 °F 1014.8 in SW 13.0 mph 13.0 mph 57 % 0.0 in
12:47 17.6 °F 9.0 °F 1014.8 in NW 13.0 mph 13.0 mph 57 % 0.0 in
12:52 17.8 °F 9.4 °F 1013.8 in West 9.3 mph 9.3 mph 58 % 0.0 in
12:57 17.9 °F 9.3 °F 1013.8 in West 13.0 mph 13.0 mph 57 % 0.0 in
13:02 17.9 °F 9.0 °F 1013.8 in WSW 11.1 mph 11.1 mph 56 % 0.0 in
13:07 18.0 °F 9.1 °F 1013.8 in NNW 10.3 mph 11.9 mph 56 % 0.0 in
13:12 18.0 °F 9.1 °F 1013.8 in SSE 18.5 mph 18.5 mph 56 % 0.0 in
13:17 18.0 °F 9.1 °F 1013.8 in WSW 16.7 mph 16.7 mph 56 % 0.0 in
13:22 18.0 °F 8.8 °F 1013.8 in West 11.1 mph 11.1 mph 55 % 0.0 in
13:28 18.1 °F 8.9 °F 1013.8 in NNW 13.0 mph 13.0 mph 55 % 0.0 in
13:33 17.9 °F 8.4 °F 1013.8 in SSW 18.5 mph 18.5 mph 54 % 0.0 in
13:38 17.9 °F 8.4 °F 1014.8 in SSW 14.8 mph 14.8 mph 54 % 0.0 in
13:43 17.8 °F 8.4 °F 1014.8 in SW 20.4 mph 20.4 mph 54 % 0.0 in
13:48 17.9 °F 8.4 °F 1014.8 in West 9.3 mph 9.3 mph 54 % 0.0 in
13:53 18.1 °F 8.7 °F 1014.8 in West 13.0 mph 13.0 mph 54 % 0.0 in
13:58 18.3 °F 8.8 °F 1014.8 in WNW 9.3 mph 9.3 mph 54 % 0.0 in
14:03 18.3 °F 8.8 °F 1014.8 in WNW 13.0 mph 13.0 mph 54 % 0.0 in
14:08 18.2 °F 8.7 °F 1014.8 in South 13.0 mph 13.0 mph 54 % 0.0 in
14:13 18.0 °F 8.3 °F 1014.8 in WSW 13.0 mph 13.0 mph 53 % 0.0 in
14:18 18.3 °F 8.8 °F 1014.8 in WSW 7.4 mph 7.4 mph 54 % 0.0 in
14:25 18.6 °F 9.1 °F 1013.8 in WSW 9.3 mph 9.3 mph 54 % 0.0 in
14:30 18.6 °F 9.1 °F 1013.8 in WNW 9.3 mph 9.3 mph 54 % 0.0 in
14:35 18.6 °F 8.8 °F 1013.8 in West 9.5 mph 9.5 mph 53 % 0.0 in
14:40 18.4 °F 8.4 °F 1014.8 in West 16.7 mph 16.7 mph 52 % 0.0 in
14:45 18.4 °F 8.4 °F 1014.8 in SW 9.3 mph 9.3 mph 52 % 0.0 in
14:50 18.7 °F 8.9 °F 1014.8 in West 7.4 mph 7.4 mph 53 % 0.0 in
14:55 18.7 °F 8.6 °F 1014.8 in West 13.0 mph 13.0 mph 52 % 0.0 in
15:00 18.6 °F 8.3 °F 1014.8 in WSW 13.0 mph 13.0 mph 51 % 0.0 in
15:05 18.6 °F 8.3 °F 1014.8 in WSW 11.1 mph 11.1 mph 51 % 0.0 in
15:10 18.6 °F 8.3 °F 1014.8 in West 9.3 mph 9.3 mph 51 % 0.0 in
15:15 18.8 °F 8.4 °F 1014.8 in WSW 11.1 mph 11.1 mph 51 % 0.0 in
15:20 18.9 °F 8.6 °F 1014.8 in West 9.3 mph 9.3 mph 51 % 0.0 in
15:25 19.0 °F 8.3 °F 1014.8 in SW 13.7 mph 13.7 mph 50 % 0.0 in
15:30 19.1 °F 8.4 °F 1014.8 in NW 7.4 mph 7.4 mph 50 % 0.0 in
15:35 19.0 °F 8.3 °F 1014.8 in WSW 7.4 mph 7.4 mph 50 % 0.0 in
15:40 19.1 °F 8.4 °F 1013.8 in WSW 5.6 mph 5.6 mph 50 % 0.0 in
15:45 19.0 °F 8.1 °F 1013.8 in WSW 9.3 mph 9.5 mph 49 % 0.0 in
15:50 18.8 °F 8.2 °F 1013.8 in NW 7.4 mph 7.4 mph 50 % 0.0 in
15:55 18.8 °F 8.2 °F 1014.8 in WSW 9.3 mph 9.3 mph 50 % 0.0 in
16:00 18.7 °F 7.8 °F 1014.8 in SW 11.1 mph 11.1 mph 49 % 0.0 in
16:05 18.7 °F 8.1 °F 1014.8 in SW 12.2 mph 12.2 mph 50 % 0.0 in
16:10 18.5 °F 7.6 °F 1013.8 in WSW 13.0 mph 13.0 mph 49 % 0.0 in
16:15 18.4 °F 7.5 °F 1013.8 in WNW 7.4 mph 7.4 mph 49 % 0.0 in
16:20 18.4 °F 7.5 °F 1013.8 in WSW 5.6 mph 6.9 mph 49 % 0.0 in
16:25 18.3 °F 7.1 °F 1013.8 in West 16.7 mph 16.7 mph 48 % 0.0 in
16:30 18.3 °F 7.4 °F 1013.8 in West 11.1 mph 11.1 mph 49 % 0.0 in
16:35 18.2 °F 7.0 °F 1013.8 in WSW 7.4 mph 7.4 mph 48 % 0.0 in
16:40 18.1 °F 6.9 °F 1013.8 in WSW 9.3 mph 9.3 mph 48 % 0.0 in
16:41 18.1 °F 6.9 °F 1013.8 in WSW 7.4 mph 7.4 mph 48 % 0.0 in
16:46 18.0 °F 6.8 °F 1013.8 in West 13.0 mph 13.0 mph 48 % 0.0 in
16:51 17.8 °F 6.6 °F 1013.8 in WSW 7.4 mph 7.4 mph 48 % 0.0 in
16:56 17.6 °F 6.4 °F 1013.8 in SW 7.4 mph 7.4 mph 48 % 0.0 in
17:01 17.5 °F 6.3 °F 1013.8 in WSW 9.3 mph 9.3 mph 48 % 0.0 in
17:06 17.3 °F 6.2 °F 1014.8 in WSW 7.4 mph 7.4 mph 48 % 0.0 in
17:07 17.2 °F 6.1 °F 1014.8 in SSW 7.4 mph 7.4 mph 48 % 0.0 in
17:12 17.0 °F 5.9 °F 1014.8 in SW 9.3 mph 9.3 mph 48 % 0.0 in
17:17 16.7 °F 5.9 °F 1014.8 in WNW 9.3 mph 9.5 mph 49 % 0.0 in
17:22 16.5 °F 5.7 °F 1014.8 in West 6.1 mph 6.1 mph 49 % 0.0 in
17:27 16.4 °F 5.7 °F 1014.8 in SW 5.6 mph 5.6 mph 49 % 0.0 in
17:32 16.2 °F 5.4 °F 1014.8 in West 5.6 mph 5.6 mph 49 % 0.0 in
17:37 16.0 °F 5.3 °F 1014.8 in WNW 3.7 mph 3.7 mph 49 % 0.0 in
17:42 15.8 °F 5.4 °F 1014.8 in West 7.4 mph 7.4 mph 50 % 0.0 in
17:47 15.7 °F 5.0 °F 1014.8 in WSW 9.3 mph 9.3 mph 49 % 0.0 in
17:52 15.6 °F 5.2 °F 1014.8 in SW 9.5 mph 9.5 mph 50 % 0.0 in
17:57 15.5 °F 5.1 °F 1014.8 in West 5.3 mph 5.3 mph 50 % 0.0 in
18:02 15.5 °F 5.1 °F 1014.8 in WNW 7.4 mph 7.4 mph 50 % 0.0 in
18:07 15.5 °F 5.1 °F 1014.8 in West 9.3 mph 9.3 mph 50 % 0.0 in
18:10 9.7 °F 1.8 °F 1016.8 in West 4.8 mph 9.7 mph 58 % 0.0 in
18:12 15.4 °F 5.0 °F 1014.8 in WNW 9.3 mph 9.3 mph 50 % 0.0 in
18:17 15.3 °F 4.9 °F 1014.8 in West 9.3 mph 9.3 mph 50 % 0.0 in
18:20 9.7 °F 2.1 °F 1016.8 in West 4.8 mph 11.3 mph 59 % 0.0 in
18:23 15.3 °F 4.9 °F 1015.8 in WNW 13.0 mph 13.0 mph 50 % 0.0 in
18:28 15.4 °F 5.0 °F 1015.8 in WSW 13.0 mph 13.0 mph 50 % 0.0 in
18:30 9.6 °F 1.9 °F 1017.8 in WSW 1.6 mph 6.4 mph 59 % 0.0 in
18:33 15.3 °F 4.9 °F 1015.8 in West 7.4 mph 7.4 mph 50 % 0.0 in
18:38 15.2 °F 4.8 °F 1014.8 in WSW 10.0 mph 10.0 mph 50 % 0.0 in
18:40 9.4 °F 2.0 °F 1016.8 in SW 1.6 mph 6.4 mph 60 % 0.0 in
18:43 15.3 °F 4.3 °F 1014.8 in West 20.4 mph 20.4 mph 48 % 0.0 in
18:48 15.2 °F 4.3 °F 1014.8 in West 11.4 mph 13.7 mph 48 % 0.0 in
18:50 9.1 °F 1.7 °F 1016.8 in SW 1.6 mph 4.8 mph 60 % 0.0 in
18:53 15.0 °F 4.1 °F 1015.8 in WSW 9.3 mph 9.3 mph 48 % 0.0 in
18:58 14.9 °F 4.0 °F 1015.8 in SW 16.7 mph 16.7 mph 48 % 0.0 in
19:00 9.1 °F 1.7 °F 1017.8 in WSW 4.8 mph 9.7 mph 60 % 0.0 in
19:03 14.7 °F 3.8 °F 1015.8 in West 12.2 mph 12.2 mph 48 % 0.0 in
19:08 14.6 °F 3.7 °F 1014.8 in West 13.0 mph 13.0 mph 48 % 0.0 in
19:10 9.1 °F 1.9 °F 1016.8 in WSW 4.8 mph 9.7 mph 61 % 0.0 in
19:13 14.4 °F 3.5 °F 1014.8 in WSW 14.8 mph 14.8 mph 48 % 0.0 in
19:18 14.3 °F 3.4 °F 1014.8 in WSW 11.1 mph 11.1 mph 48 % 0.0 in
19:20 9.1 °F 1.9 °F 1016.8 in WSW 3.2 mph 4.8 mph 61 % 0.0 in
19:23 14.2 °F 3.3 °F 1015.8 in West 13.0 mph 13.0 mph 48 % 0.0 in
19:28 14.1 °F 3.2 °F 1015.8 in WNW 20.9 mph 20.9 mph 48 % 0.0 in
19:30 8.9 °F 1.8 °F 1016.8 in WSW 3.2 mph 4.8 mph 61 % 0.0 in
19:33 14.0 °F 3.2 °F 1015.8 in WSW 16.9 mph 16.9 mph 48 % 0.0 in
19:38 13.9 °F 3.1 °F 1015.8 in WSW 9.3 mph 9.3 mph 48 % 0.0 in
19:40 8.7 °F 1.6 °F 1016.8 in WSW 3.2 mph 4.8 mph 61 % 0.0 in
19:48 13.6 °F 2.8 °F 1015.8 in West 5.6 mph 5.6 mph 48 % 0.0 in
19:50 8.6 °F 1.7 °F 1016.8 in WSW 1.6 mph 3.2 mph 62 % 0.0 in
19:53 13.4 °F 2.6 °F 1014.8 in West 9.5 mph 9.5 mph 48 % 0.0 in
19:58 13.3 °F 2.8 °F 1014.8 in SSW 9.3 mph 9.3 mph 49 % 0.0 in
20:00 8.5 °F 1.6 °F 1017.8 in WSW 3.2 mph 6.4 mph 62 % 0.0 in
20:03 13.2 °F 2.7 °F 1014.8 in West 13.0 mph 13.0 mph 49 % 0.0 in
20:08 13.1 °F 2.6 °F 1015.8 in West 9.3 mph 9.3 mph 49 % 0.0 in
20:10 8.3 °F 1.7 °F 1017.8 in WSW 1.6 mph 3.2 mph 63 % 0.0 in
20:13 13.0 °F 2.5 °F 1015.8 in West 9.3 mph 9.3 mph 49 % 0.0 in
20:18 12.9 °F 2.4 °F 1015.8 in WSW 16.7 mph 16.7 mph 49 % 0.0 in
20:20 8.2 °F 1.6 °F 1017.8 in Calm   1.6 mph 63 % 0.0 in
20:23 12.9 °F 2.4 °F 1015.8 in West 11.1 mph 11.1 mph 49 % 0.0 in
20:28 12.7 °F 2.6 °F 1015.8 in WSW 9.3 mph 9.3 mph 50 % 0.0 in
20:30 8.0 °F 1.6 °F 1017.8 in SSW 1.6 mph 3.2 mph 64 % 0.0 in
20:33 12.6 °F 2.4 °F 1015.8 in WNW 7.4 mph 7.4 mph 50 % 0.0 in
20:38 12.5 °F 2.3 °F 1015.8 in NW 7.4 mph 7.4 mph 50 % 0.0 in
20:40 8.0 °F 1.6 °F 1017.8 in Calm   1.6 mph 64 % 0.0 in
20:43 12.4 °F 2.3 °F 1015.8 in WNW 13.0 mph 13.0 mph 50 % 0.0 in
20:48 12.3 °F 2.2 °F 1015.8 in NNE 9.3 mph 9.3 mph 50 % 0.0 in
20:53 12.3 °F 2.2 °F 1016.8 in WNW 9.3 mph 9.3 mph 50 % 0.0 in
20:58 12.2 °F 2.3 °F 1016.8 in SE 5.6 mph 5.6 mph 51 % 0.0 in
21:00 7.7 °F 1.3 °F 1017.8 in Calm   4.8 mph 64 % 0.0 in
21:03 12.1 °F 2.3 °F 1016.8 in WSW 13.0 mph 13.0 mph 51 % 0.0 in
21:08 12.0 °F 2.2 °F 1016.8 in WSW 5.6 mph 5.6 mph 51 % 0.0 in
21:10 7.6 °F 1.2 °F 1017.8 in Calm   3.2 mph 64 % 0.0 in
21:13 11.9 °F 2.1 °F 1016.8 in SSW 7.4 mph 7.4 mph 51 % 0.0 in
21:18 11.8 °F 2.0 °F 1016.8 in West 5.6 mph 5.6 mph 51 % 0.0 in
21:20 7.7 °F 1.3 °F 1017.8 in WSW 1.6 mph 4.8 mph 64 % 0.0 in
21:23 11.8 °F 2.0 °F 1015.8 in West 11.1 mph 11.1 mph 51 % 0.0 in
21:28 11.7 °F 1.9 °F 1015.8 in NE 9.3 mph 9.3 mph 51 % 0.0 in
21:30 7.9 °F 1.3 °F 1017.8 in West 4.8 mph 4.8 mph 63 % 0.0 in
21:33 11.6 °F 2.1 °F 1015.8 in West 9.3 mph 9.3 mph 52 % 0.0 in
21:38 11.6 °F 2.1 °F 1015.8 in West 9.3 mph 9.3 mph 52 % 0.0 in
21:40 8.2 °F 1.3 °F 1016.8 in West 4.8 mph 8.0 mph 62 % 0.0 in
21:43 11.5 °F 2.0 °F 1015.8 in WSW 6.4 mph 6.4 mph 52 % 0.0 in
21:48 11.4 °F 1.9 °F 1015.8 in WSW 7.4 mph 7.4 mph 52 % 0.0 in
21:50 7.9 °F 1.1 °F 1016.8 in WSW 9.7 mph 9.7 mph 62 % 0.0 in
21:53 11.4 °F 1.9 °F 1016.8 in West 9.3 mph 9.3 mph 52 % 0.0 in
21:58 11.3 °F 1.8 °F 1016.8 in SW 7.4 mph 7.4 mph 52 % 0.0 in
22:00 8.2 °F 1.3 °F 1016.8 in WSW 8.0 mph 8.0 mph 62 % 0.0 in
22:03 11.3 °F 1.8 °F 1016.8 in SW 9.3 mph 9.3 mph 52 % 0.0 in
22:08 11.2 °F 1.9 °F 1016.8 in WNW 9.3 mph 9.3 mph 53 % 0.0 in
22:10 8.2 °F 1.1 °F 1016.8 in WSW 4.8 mph 8.0 mph 61 % 0.0 in
22:13 11.2 °F 1.9 °F 1016.8 in West 14.8 mph 14.8 mph 53 % 0.0 in
22:18 11.1 °F 1.9 °F 1016.8 in NNW 9.3 mph 9.3 mph 53 % 0.0 in
22:20 7.9 °F 0.8 °F 1016.8 in WSW 3.2 mph 4.8 mph 61 % 0.0 in
22:23 11.0 °F 1.8 °F 1017.8 in South 13.0 mph 13.0 mph 53 % 0.0 in
22:28 11.0 °F 1.8 °F 1017.8 in WSW 5.6 mph 5.6 mph 53 % 0.0 in
22:30 7.9 °F 1.1 °F 1015.8 in WSW 4.8 mph 6.4 mph 62 % 0.0 in
22:33 10.9 °F 1.7 °F 1017.8 in NNW 3.9 mph   53 % 0.0 in
22:38 10.8 °F 1.8 °F 1017.8 in WSW 7.4 mph 7.4 mph 54 % 0.0 in
22:40 7.9 °F 1.1 °F 1016.8 in WSW 4.8 mph 6.4 mph 62 % 0.0 in
22:43 10.8 °F 1.8 °F 1017.8 in SW 3.7 mph 3.7 mph 54 % 0.0 in
22:48 10.8 °F 1.8 °F 1017.8 in South 9.3 mph 9.3 mph 54 % 0.0 in
22:50 7.7 °F 0.9 °F 1016.8 in WSW 4.8 mph 6.4 mph 62 % 0.0 in
22:53 10.7 °F 1.8 °F 1017.8 in WSW 7.9 mph 7.9 mph 54 % 0.0 in
22:58 10.6 °F 1.7 °F 1017.8 in WSW 7.4 mph 7.4 mph 54 % 0.0 in
23:00 7.6 °F 0.8 °F 1016.8 in WSW 3.2 mph 6.4 mph 62 % 0.0 in
23:03 10.6 °F 1.7 °F 1017.8 in NNE 7.4 mph 7.4 mph 54 % 0.0 in
23:08 10.5 °F 1.8 °F 1017.8 in SW 5.6 mph 5.6 mph 55 % 0.0 in
23:10 7.5 °F 0.7 °F 1016.8 in WSW 4.8 mph 6.4 mph 62 % 0.0 in
23:13 10.5 °F 1.8 °F 1017.8 in SW 5.6 mph 5.6 mph 55 % 0.0 in
23:18 10.4 °F 1.7 °F 1017.8 in West 13.0 mph 13.0 mph 55 % 0.0 in
23:20 7.5 °F 0.7 °F 1016.8 in WSW 8.0 mph 8.0 mph 62 % 0.0 in
23:23 10.4 °F 1.7 °F 1017.8 in WSW 7.9 mph 7.9 mph 55 % 0.0 in
23:28 10.3 °F 1.7 °F 1017.8 in WSW 11.1 mph 11.1 mph 55 % 0.0 in
23:30 7.5 °F 0.7 °F 1016.8 in WSW 9.7 mph 9.7 mph 62 % 0.0 in
23:33 10.2 °F 1.8 °F 1017.8 in West 9.3 mph 9.3 mph 56 % 0.0 in
23:38 10.1 °F 1.7 °F 1017.8 in WSW 9.3 mph 9.3 mph 56 % 0.0 in
23:40 7.3 °F 0.5 °F 1016.8 in WSW 4.8 mph 6.4 mph 62 % 0.0 in
23:43 10.0 °F 1.9 °F 1017.8 in SW 9.3 mph 9.3 mph 57 % 0.0 in
23:48 9.9 °F 1.8 °F 1017.8 in WNW 7.4 mph 7.4 mph 57 % 0.0 in
23:50 7.4 °F 0.6 °F 1016.8 in West 8.0 mph 9.7 mph 62 % 0.0 in
23:53 9.9 °F 1.8 °F 1016.8 in WSW 9.3 mph 9.3 mph 57 % 0.0 in
23:58 9.9 °F 2.0 °F 1016.8 in WSW 7.4 mph 7.4 mph 58 % 0.0 in
Meteo Sesrovires
Elogis d' Weather Underground - 2 mb

Guio original per  Jim McMurry - jmcmurry@mwt.net Adaptat per a la plantilla per  Wim van der Kuil - Leuven-Template.eu

Trobareu la nostra informacio del temps tambe a:

Weather Underground

AWEKAS